createdAt,value
2019-02-18T00:00:39.070Z,99.90
2019-02-18T00:03:08.227Z,99.90
2019-02-18T00:05:36.846Z,99.90
2019-02-18T00:08:05.441Z,99.90
2019-02-18T00:10:34.001Z,99.90
2019-02-18T00:13:02.516Z,99.90
2019-02-18T00:15:31.092Z,99.90
2019-02-18T00:17:59.594Z,99.90
2019-02-18T00:20:28.173Z,99.90
2019-02-18T00:22:56.605Z,99.90
2019-02-18T00:25:25.412Z,99.90
2019-02-18T00:27:53.918Z,99.90
2019-02-18T00:30:22.693Z,99.90
2019-02-18T00:32:51.132Z,99.90
2019-02-18T00:35:19.622Z,99.90
2019-02-18T00:37:48.195Z,99.90
2019-02-18T00:40:16.620Z,99.90
2019-02-18T00:42:45.101Z,99.90
2019-02-18T00:45:13.832Z,99.90
2019-02-18T00:47:42.297Z,99.90
2019-02-18T00:50:11.248Z,99.90
2019-02-18T00:52:39.805Z,99.90
2019-02-18T00:55:09.478Z,99.90
2019-02-18T00:57:37.977Z,99.90
2019-02-18T01:00:16.040Z,99.90
2019-02-18T01:02:44.663Z,99.90
2019-02-18T01:05:13.508Z,99.90
2019-02-18T01:07:43.496Z,99.90
2019-02-18T01:10:12.720Z,99.90
2019-02-18T01:12:41.304Z,99.90
2019-02-18T01:15:12.379Z,99.90
2019-02-18T01:17:40.912Z,99.90
2019-02-18T01:20:12.013Z,99.90
2019-02-18T01:22:41.021Z,99.90
2019-02-18T01:25:13.886Z,99.90
2019-02-18T01:30:17.892Z,99.90
2019-02-18T01:32:46.352Z,99.90
2019-02-18T01:35:14.791Z,99.90
2019-02-18T01:37:46.033Z,99.90
2019-02-18T01:40:14.307Z,99.90
2019-02-18T01:42:45.714Z,99.90
2019-02-18T01:45:16.378Z,99.90
2019-02-18T01:47:45.755Z,99.90
2019-02-18T01:50:19.680Z,99.90
2019-02-18T01:52:48.367Z,99.90
2019-02-18T01:55:16.939Z,99.90
2019-02-18T01:57:47.845Z,99.90
2019-02-18T02:00:16.727Z,99.90
2019-02-18T02:02:45.308Z,99.90
2019-02-18T02:05:17.112Z,99.90
2019-02-18T02:07:55.355Z,99.90
2019-02-18T02:10:17.796Z,99.90
2019-02-18T02:12:46.397Z,99.90
2019-02-18T02:15:23.978Z,99.90
2019-02-18T02:17:54.083Z,99.90
2019-02-18T02:20:22.544Z,99.90
2019-02-18T02:22:50.977Z,99.90
2019-02-18T02:25:20.931Z,99.90
2019-02-18T02:27:49.407Z,99.90
2019-02-18T02:30:17.940Z,99.90
2019-02-18T02:32:47.603Z,99.90
2019-02-18T02:35:16.795Z,99.90
2019-02-18T02:37:45.228Z,99.90
2019-02-18T02:40:13.656Z,99.90
2019-02-18T02:42:42.169Z,99.90
2019-02-18T02:45:10.612Z,99.90
2019-02-18T02:47:39.042Z,99.90
2019-02-18T02:50:08.225Z,99.90
2019-02-18T02:52:36.832Z,99.90
2019-02-18T02:55:06.409Z,99.90
2019-02-18T02:57:34.869Z,99.90
2019-02-18T03:00:04.920Z,99.90
2019-02-18T03:02:33.349Z,99.90
2019-02-18T03:05:01.788Z,99.90
2019-02-18T03:07:30.249Z,99.90
2019-02-18T03:09:58.682Z,99.90
2019-02-18T03:12:27.129Z,99.90
2019-02-18T03:14:55.553Z,99.90
2019-02-18T03:17:23.996Z,99.90
2019-02-18T03:19:52.414Z,99.90
2019-02-18T03:22:20.854Z,99.90
2019-02-18T03:25:17.653Z,99.90
2019-02-18T03:27:46.251Z,99.90
2019-02-18T03:30:34.507Z,99.90
2019-02-18T03:33:06.958Z,99.90
2019-02-18T03:35:37.010Z,99.90
2019-02-18T03:38:05.533Z,99.90
2019-02-18T03:40:33.985Z,99.90
2019-02-18T03:43:02.495Z,99.90
2019-02-18T03:45:30.923Z,99.90
2019-02-18T03:47:59.370Z,99.90
2019-02-18T03:50:27.799Z,99.90
2019-02-18T03:52:59.169Z,99.90
2019-02-18T03:55:28.986Z,99.90
2019-02-18T03:57:57.584Z,99.90
2019-02-18T04:00:27.621Z,99.90
2019-02-18T04:02:57.830Z,99.90
2019-02-18T04:05:26.275Z,99.90
2019-02-18T04:07:54.697Z,99.90
2019-02-18T04:10:23.159Z,99.90
2019-02-18T04:12:51.729Z,99.90
2019-02-18T04:15:23.207Z,99.90
2019-02-18T04:17:51.739Z,99.90
2019-02-18T04:20:20.174Z,99.90
2019-02-18T04:22:48.721Z,99.90
2019-02-18T04:25:17.162Z,99.90
2019-02-18T04:27:45.616Z,99.90
2019-02-18T04:30:14.131Z,99.90
2019-02-18T04:32:42.585Z,99.90
2019-02-18T04:35:11.164Z,99.90
2019-02-18T04:37:39.594Z,99.90
2019-02-18T04:40:08.770Z,99.90
2019-02-18T04:42:37.392Z,99.90
2019-02-18T04:45:08.482Z,99.90
2019-02-18T04:47:37.013Z,99.90
2019-02-18T04:50:07.403Z,99.90
2019-02-18T04:52:35.824Z,99.90
2019-02-18T04:55:06.970Z,99.90
2019-02-18T04:57:35.385Z,99.90
2019-02-18T05:00:23.233Z,99.90
2019-02-18T05:02:51.670Z,99.90
2019-02-18T05:05:33.622Z,99.90
2019-02-18T05:07:59.619Z,99.90
2019-02-18T05:10:28.595Z,99.90
2019-02-18T05:13:24.569Z,99.90
2019-02-18T05:15:59.395Z,99.90
2019-02-18T05:18:27.948Z,99.90
2019-02-18T05:20:57.434Z,99.90
2019-02-18T05:23:25.966Z,99.90
2019-02-18T05:25:56.993Z,99.90
2019-02-18T05:28:25.420Z,99.90
2019-02-18T05:30:53.841Z,99.90
2019-02-18T05:33:22.297Z,99.90
2019-02-18T05:35:50.795Z,99.90
2019-02-18T05:38:19.263Z,99.90
2019-02-18T05:40:47.784Z,99.90
2019-02-18T05:43:16.325Z,99.90
2019-02-18T05:46:04.171Z,99.90
2019-02-18T05:48:34.049Z,99.90
2019-02-18T05:51:03.264Z,99.90
2019-02-18T05:53:31.761Z,99.90
2019-02-18T05:56:00.201Z,99.90
2019-02-18T05:58:28.753Z,99.90
2019-02-18T06:01:03.332Z,99.90
2019-02-18T06:03:27.362Z,99.90
2019-02-18T06:05:55.796Z,99.90
2019-02-18T06:08:24.674Z,99.90
2019-02-18T06:10:53.123Z,99.90
2019-02-18T06:13:21.695Z,99.90
2019-02-18T06:15:50.131Z,99.90
2019-02-18T06:18:18.569Z,99.90
2019-02-18T06:20:48.665Z,99.90
2019-02-18T06:23:29.943Z,99.90
2019-02-18T06:25:47.530Z,99.90
2019-02-18T06:28:16.033Z,99.90
2019-02-18T06:30:47.238Z,99.90
2019-02-18T06:33:15.711Z,99.90
2019-02-18T06:35:46.520Z,99.90
2019-02-18T06:38:15.093Z,99.90
2019-02-18T06:40:43.504Z,99.90
2019-02-18T06:43:11.941Z,99.90
2019-02-18T06:45:42.011Z,99.90
2019-02-18T06:48:17.912Z,99.90
2019-02-18T06:50:46.355Z,99.90
2019-02-18T06:53:14.789Z,99.90
2019-02-18T06:55:43.253Z,99.90
2019-02-18T06:58:15.313Z,99.90
2019-02-18T07:00:45.118Z,99.90
2019-02-18T07:03:18.648Z,99.90
2019-02-18T07:05:51.564Z,99.90
2019-02-18T07:08:21.649Z,99.90
2019-02-18T07:10:54.473Z,99.90
2019-02-18T07:13:22.892Z,99.90
2019-02-18T07:15:51.343Z,99.90
2019-02-18T07:18:19.895Z,99.90
2019-02-18T07:20:48.480Z,99.90
2019-02-18T07:23:16.988Z,99.90
2019-02-18T07:25:45.465Z,99.90
2019-02-18T07:28:14.044Z,99.90
2019-02-18T07:30:42.603Z,99.90
2019-02-18T07:33:12.696Z,99.90
2019-02-18T07:35:41.129Z,99.90
2019-02-18T07:38:09.670Z,99.90
2019-02-18T07:40:38.136Z,99.90
2019-02-18T07:43:06.571Z,99.90
2019-02-18T07:45:35.028Z,99.90
2019-02-18T07:48:03.471Z,99.90
2019-02-18T07:50:31.933Z,99.90
2019-02-18T07:53:00.376Z,99.90
2019-02-18T07:55:28.891Z,99.90
2019-02-18T08:00:29.262Z,99.90
2019-02-18T08:02:57.813Z,99.90
2019-02-18T08:05:28.365Z,99.90
2019-02-18T08:08:00.697Z,99.90
2019-02-18T08:10:27.082Z,99.90
2019-02-18T08:12:55.504Z,99.90
2019-02-18T08:15:23.961Z,99.90
2019-02-18T08:17:52.436Z,99.90
2019-02-18T08:20:22.478Z,99.90
2019-02-18T08:22:50.937Z,99.90
2019-02-18T08:25:19.451Z,99.90
2019-02-18T08:27:48.947Z,99.90
2019-02-18T08:30:17.488Z,99.90
2019-02-18T08:32:45.959Z,99.90
2019-02-18T08:35:16.269Z,99.90
2019-02-18T08:37:44.738Z,99.90
2019-02-18T08:40:22.088Z,99.90
2019-02-18T08:42:43.533Z,99.90
2019-02-18T08:45:13.031Z,99.90
2019-02-18T08:47:59.439Z,99.90
2019-02-18T08:50:23.689Z,99.90
2019-02-18T08:52:52.316Z,99.90
2019-02-18T08:55:20.797Z,99.90
2019-02-18T08:57:49.320Z,99.90
2019-02-18T09:00:18.013Z,99.90
2019-02-18T09:02:47.480Z,99.90
2019-02-18T09:05:16.122Z,99.90
2019-02-18T09:10:17.090Z,99.90
2019-02-18T09:13:04.950Z,99.90
2019-02-18T09:15:33.385Z,99.90
2019-02-18T09:18:01.847Z,99.90
2019-02-18T09:20:30.298Z,99.90
2019-02-18T09:23:00.452Z,99.90
2019-02-18T09:25:36.265Z,99.90
2019-02-18T09:28:10.015Z,99.90
2019-02-18T09:30:36.582Z,99.90
2019-02-18T09:33:05.241Z,99.90
2019-02-18T09:35:33.696Z,99.90
2019-02-18T09:38:02.131Z,99.90
2019-02-18T09:40:30.810Z,99.90
2019-02-18T09:42:59.242Z,99.90
2019-02-18T09:45:27.680Z,99.90
2019-02-18T09:47:58.430Z,99.90
2019-02-18T09:50:26.295Z,99.90
2019-02-18T09:52:54.803Z,99.90
2019-02-18T09:55:23.355Z,99.90
2019-02-18T09:57:51.795Z,99.90
2019-02-18T10:00:20.300Z,99.90
2019-02-18T10:02:48.816Z,99.90
2019-02-18T10:05:17.260Z,99.90
2019-02-18T10:07:45.796Z,99.90
2019-02-18T10:10:14.333Z,99.90
2019-02-18T10:12:42.891Z,99.90
2019-02-18T10:15:11.814Z,99.90
2019-02-18T10:17:40.338Z,99.90
2019-02-18T10:20:14.104Z,99.90
2019-02-18T10:22:42.621Z,99.90
2019-02-18T10:25:14.295Z,99.90
2019-02-18T10:27:45.102Z,99.90
2019-02-18T10:30:13.841Z,97.80
2019-02-18T10:32:43.844Z,95.70
2019-02-18T10:35:13.904Z,91.30
2019-02-18T10:37:42.364Z,91.50
2019-02-18T10:40:24.887Z,89.00
2019-02-18T10:42:44.790Z,85.90
2019-02-18T10:45:13.638Z,87.00
2019-02-18T10:47:43.708Z,86.90
2019-02-18T10:50:12.880Z,80.30
2019-02-18T10:52:41.343Z,78.10
2019-02-18T10:55:11.127Z,73.90
2019-02-18T10:57:39.924Z,71.90
2019-02-18T11:00:11.684Z,66.80
2019-02-18T11:02:42.566Z,64.80
2019-02-18T11:05:10.674Z,62.90
2019-02-18T11:07:41.198Z,61.20
2019-02-18T11:10:19.163Z,60.20
2019-02-18T11:12:47.875Z,57.70
2019-02-18T11:15:17.912Z,57.30
2019-02-18T11:17:47.927Z,56.00
2019-02-18T11:20:16.408Z,54.90
2019-02-18T11:22:44.982Z,53.20
2019-02-18T11:25:15.053Z,51.80
2019-02-18T11:27:44.743Z,52.50
2019-02-18T11:30:17.272Z,51.10
2019-02-18T11:32:49.037Z,49.70
2019-02-18T11:35:17.485Z,49.80
2019-02-18T11:37:45.996Z,48.90
2019-02-18T11:40:19.976Z,47.80
2019-02-18T11:42:48.528Z,47.80
2019-02-18T11:45:17.391Z,47.70
2019-02-18T11:50:23.475Z,42.50
2019-02-18T11:52:51.999Z,39.80
2019-02-18T11:55:20.444Z,38.20
2019-02-18T11:57:48.972Z,36.70
2019-02-18T12:00:17.901Z,35.80
2019-02-18T12:02:46.410Z,35.40
2019-02-18T12:05:14.994Z,34.60
2019-02-18T12:07:47.451Z,35.30
2019-02-18T12:10:15.998Z,33.50
2019-02-18T12:12:44.578Z,33.20
2019-02-18T12:15:14.434Z,33.80
2019-02-18T12:17:43.208Z,33.00
2019-02-18T12:20:16.072Z,33.20
2019-02-18T12:22:45.070Z,33.60
2019-02-18T12:25:13.942Z,33.40
2019-02-18T12:27:42.946Z,32.60
2019-02-18T12:30:16.682Z,33.30
2019-02-18T12:32:45.264Z,33.80
2019-02-18T12:35:17.802Z,33.70
2019-02-18T12:37:55.010Z,33.50
2019-02-18T12:40:17.560Z,31.50
2019-02-18T12:42:49.797Z,31.10
2019-02-18T12:45:18.332Z,30.70
2019-02-18T12:47:46.983Z,30.80
2019-02-18T12:50:19.821Z,30.70
2019-02-18T12:52:51.454Z,31.40
2019-02-18T12:55:20.476Z,30.10
2019-02-18T12:57:51.849Z,30.50
2019-02-18T13:00:20.467Z,29.70
2019-02-18T13:02:49.016Z,28.90
2019-02-18T13:05:21.174Z,28.30
2019-02-18T13:07:49.364Z,28.60
2019-02-18T13:10:17.993Z,27.90
2019-02-18T13:12:49.357Z,27.40
2019-02-18T13:15:19.487Z,28.30
2019-02-18T13:17:49.678Z,28.30
2019-02-18T13:20:18.328Z,27.30
2019-02-18T13:22:48.265Z,27.20
2019-02-18T13:25:19.074Z,27.60
2019-02-18T13:27:49.127Z,27.90
2019-02-18T13:30:19.241Z,28.20
2019-02-18T13:32:47.910Z,28.40
2019-02-18T13:35:21.180Z,27.70
2019-02-18T13:38:09.121Z,28.80
2019-02-18T13:40:37.670Z,27.80
2019-02-18T13:43:13.729Z,27.60
2019-02-18T13:45:42.367Z,28.20
2019-02-18T13:48:10.957Z,27.90
2019-02-18T13:50:41.690Z,27.90
2019-02-18T13:53:09.713Z,27.40
2019-02-18T13:55:38.399Z,27.60
2019-02-18T13:58:17.282Z,27.20
2019-02-18T14:00:41.552Z,28.50
2019-02-18T14:03:10.182Z,27.10
2019-02-18T14:05:38.703Z,27.50
2019-02-18T14:08:07.359Z,26.70
2019-02-18T14:10:37.489Z,26.60
2019-02-18T14:13:06.491Z,26.30
2019-02-18T14:15:36.320Z,26.60
2019-02-18T14:18:05.155Z,26.50
2019-02-18T14:20:34.376Z,26.00
2019-02-18T14:23:04.280Z,27.90
2019-02-18T14:25:32.763Z,26.90
2019-02-18T14:28:01.394Z,27.20
2019-02-18T14:30:35.994Z,27.80
2019-02-18T14:33:04.635Z,28.00
2019-02-18T14:35:33.565Z,27.80
2019-02-18T14:38:02.134Z,27.70
2019-02-18T14:40:31.076Z,28.00
2019-02-18T14:42:59.647Z,29.20
2019-02-18T14:45:28.250Z,29.30
2019-02-18T14:47:56.884Z,29.60
2019-02-18T14:50:25.800Z,30.40
2019-02-18T14:53:00.192Z,32.50
2019-02-18T14:55:29.323Z,33.80
2019-02-18T14:57:57.902Z,36.10
2019-02-18T15:00:26.592Z,36.90
2019-02-18T15:02:57.144Z,36.30
2019-02-18T15:05:26.847Z,35.90
2019-02-18T15:07:55.534Z,36.90
2019-02-18T15:10:24.122Z,37.30
2019-02-18T15:12:52.863Z,37.20
2019-02-18T15:15:24.064Z,37.50
2019-02-18T15:17:52.638Z,37.40
2019-02-18T15:20:21.473Z,38.00
2019-02-18T15:22:50.066Z,37.80
2019-02-18T15:25:18.601Z,38.10
2019-02-18T15:27:48.687Z,39.10
2019-02-18T15:30:17.452Z,39.50
2019-02-18T15:32:46.184Z,40.30
2019-02-18T15:35:16.526Z,39.80
2019-02-18T15:37:45.205Z,40.10
2019-02-18T15:40:15.500Z,39.70
2019-02-18T15:42:44.751Z,38.30
2019-02-18T15:45:13.432Z,39.10
2019-02-18T15:47:42.122Z,40.20
2019-02-18T15:50:12.177Z,41.00
2019-02-18T15:52:40.812Z,41.10
2019-02-18T15:55:10.382Z,41.80
2019-02-18T15:57:38.940Z,42.20
2019-02-18T16:00:21.547Z,42.60
2019-02-18T16:02:50.403Z,43.20
2019-02-18T16:05:19.040Z,43.30
2019-02-18T16:07:49.196Z,43.70
2019-02-18T16:10:17.783Z,44.00
2019-02-18T16:12:54.027Z,44.10
2019-02-18T16:15:24.058Z,44.70
2019-02-18T16:17:52.573Z,44.90
2019-02-18T16:20:22.712Z,45.00
2019-02-18T16:22:51.419Z,45.60
2019-02-18T16:25:22.351Z,46.10
2019-02-18T16:27:51.055Z,46.40
2019-02-18T16:30:19.748Z,46.70
2019-02-18T16:32:48.476Z,46.70
2019-02-18T16:35:17.328Z,47.10
2019-02-18T16:37:45.981Z,47.00
2019-02-18T16:40:18.834Z,47.10
2019-02-18T16:42:47.564Z,47.50
2019-02-18T16:45:16.229Z,47.70
2019-02-18T16:47:44.846Z,48.40
2019-02-18T16:50:14.139Z,48.00
2019-02-18T16:52:46.200Z,48.50
2019-02-18T16:55:15.444Z,47.90
2019-02-18T16:57:44.101Z,47.70
2019-02-18T17:00:23.278Z,46.60
2019-02-18T17:02:52.333Z,45.70
2019-02-18T17:05:20.921Z,45.50
2019-02-18T17:07:51.004Z,44.90
2019-02-18T17:10:19.654Z,44.90
2019-02-18T17:12:50.314Z,45.00
2019-02-18T17:15:22.048Z,45.00
2019-02-18T17:17:50.590Z,45.20
2019-02-18T17:20:25.015Z,45.40
2019-02-18T17:22:54.732Z,45.90
2019-02-18T17:25:22.712Z,45.90
2019-02-18T17:27:52.798Z,46.20
2019-02-18T17:30:22.737Z,46.70
2019-02-18T17:32:53.389Z,47.10
2019-02-18T17:35:26.318Z,47.30
2019-02-18T17:37:54.037Z,47.60
2019-02-18T17:40:24.642Z,47.90
2019-02-18T17:42:55.189Z,49.20
2019-02-18T17:45:29.099Z,48.40
2019-02-18T17:48:05.553Z,48.80
2019-02-18T17:50:30.871Z,49.30
2019-02-18T17:53:01.062Z,49.30
2019-02-18T17:55:29.596Z,49.60
2019-02-18T17:57:58.222Z,50.00
2019-02-18T18:00:32.107Z,50.40
2019-02-18T18:03:16.527Z,50.70
2019-02-18T18:05:39.344Z,51.00
2019-02-18T18:08:18.991Z,51.50
2019-02-18T18:10:47.881Z,52.00
2019-02-18T18:13:24.991Z,52.60
2019-02-18T18:15:50.921Z,53.50
2019-02-18T18:18:25.739Z,54.20
2019-02-18T18:20:56.348Z,55.00
2019-02-18T18:23:35.537Z,56.70
2019-02-18T18:26:05.435Z,57.90
2019-02-18T18:28:36.059Z,60.40
2019-02-18T18:31:17.084Z,63.20
2019-02-18T18:33:50.180Z,67.70
2019-02-18T18:36:25.297Z,72.60
2019-02-18T18:41:42.605Z,86.70
2019-02-18T18:44:15.262Z,93.60
2019-02-18T18:47:00.145Z,99.10
2019-02-18T18:49:21.832Z,99.90
2019-02-18T18:51:52.838Z,99.90
2019-02-18T18:54:27.528Z,99.90
2019-02-18T18:56:59.826Z,99.90
2019-02-18T18:59:29.976Z,99.90
2019-02-18T19:01:58.456Z,99.90
2019-02-18T19:04:27.023Z,99.90
2019-02-18T19:06:58.398Z,99.90
2019-02-18T19:09:37.719Z,99.90
2019-02-18T19:12:11.103Z,99.90
2019-02-18T19:14:45.034Z,99.90
2019-02-18T19:17:19.773Z,99.90
2019-02-18T19:19:58.155Z,99.90
2019-02-18T19:22:29.183Z,99.90
2019-02-18T19:25:00.898Z,99.90
2019-02-18T19:30:34.440Z,99.90
2019-02-18T19:33:03.966Z,99.90
2019-02-18T19:35:38.326Z,99.90
2019-02-18T19:38:11.757Z,99.90
2019-02-18T19:40:49.738Z,99.90
2019-02-18T19:43:31.605Z,99.90
2019-02-18T19:46:07.494Z,99.90
2019-02-18T19:48:37.702Z,99.90
2019-02-18T19:51:13.633Z,99.90
2019-02-18T19:53:49.222Z,99.90
2019-02-18T19:56:22.598Z,99.90
2019-02-18T19:58:54.344Z,99.90
2019-02-18T20:01:45.940Z,99.90
2019-02-18T20:04:19.673Z,99.90
2019-02-18T20:06:50.773Z,99.90
2019-02-18T20:09:33.920Z,99.90
2019-02-18T20:12:06.070Z,99.90
2019-02-18T20:14:39.202Z,99.90
2019-02-18T20:17:20.739Z,99.90
2019-02-18T20:19:53.700Z,99.90
2019-02-18T20:22:21.291Z,99.90
2019-02-18T20:24:58.477Z,99.90
2019-02-18T20:27:33.797Z,99.90
2019-02-18T20:30:11.221Z,99.90
2019-02-18T20:32:41.490Z,99.90
2019-02-18T20:35:12.476Z,99.90
2019-02-18T20:37:41.041Z,99.90
2019-02-18T20:40:12.660Z,99.90
2019-02-18T20:42:49.088Z,99.90
2019-02-18T20:45:17.800Z,99.90
2019-02-18T20:47:52.094Z,99.90
2019-02-18T20:50:20.645Z,99.90
2019-02-18T20:52:50.645Z,99.90
2019-02-18T20:55:19.461Z,99.90
2019-02-18T20:57:48.420Z,99.90
2019-02-18T21:00:19.513Z,99.90
2019-02-18T21:02:48.708Z,99.90
2019-02-18T21:05:17.394Z,99.90
2019-02-18T21:07:46.104Z,99.90
2019-02-18T21:10:19.419Z,99.90
2019-02-18T21:12:48.328Z,99.90
2019-02-18T21:15:17.064Z,99.90
2019-02-18T21:17:45.913Z,99.90
2019-02-18T21:20:20.209Z,99.90
2019-02-18T21:22:51.812Z,99.90
2019-02-18T21:25:23.732Z,99.90
2019-02-18T21:27:52.266Z,99.90
2019-02-18T21:30:20.832Z,99.90
2019-02-18T21:32:49.416Z,99.90
2019-02-18T21:35:17.900Z,99.90
2019-02-18T21:37:49.352Z,99.90
2019-02-18T21:40:18.107Z,99.90
2019-02-18T21:42:46.809Z,99.90
2019-02-18T21:45:15.793Z,99.90
2019-02-18T21:47:46.329Z,99.90
2019-02-18T21:50:15.051Z,99.90
2019-02-18T21:52:43.561Z,99.90
2019-02-18T21:55:12.929Z,99.90
2019-02-18T21:57:42.498Z,99.90
2019-02-18T22:00:22.860Z,99.90
2019-02-18T22:02:51.378Z,99.90
2019-02-18T22:05:20.012Z,99.90
2019-02-18T22:07:48.641Z,99.90
2019-02-18T22:10:17.168Z,99.90
2019-02-18T22:12:46.494Z,99.90
2019-02-18T22:15:16.391Z,99.90
2019-02-18T22:17:48.512Z,99.90
2019-02-18T22:20:17.303Z,99.90
2019-02-18T22:22:45.828Z,99.90
2019-02-18T22:25:14.392Z,99.90
2019-02-18T22:27:43.115Z,99.90
2019-02-18T22:30:16.104Z,99.90
2019-02-18T22:32:44.571Z,99.90
2019-02-18T22:35:14.179Z,99.90
2019-02-18T22:37:42.807Z,99.90
2019-02-18T22:40:12.610Z,99.90
2019-02-18T22:42:41.222Z,99.90
2019-02-18T22:45:11.555Z,99.90
2019-02-18T22:47:40.226Z,99.90
2019-02-18T22:50:10.550Z,99.90
2019-02-18T22:52:39.082Z,99.90
2019-02-18T22:55:08.695Z,99.90
2019-02-18T22:57:37.212Z,99.90
2019-02-18T23:00:25.492Z,99.90
2019-02-18T23:02:54.556Z,99.90
2019-02-18T23:05:23.017Z,99.90
2019-02-18T23:07:51.471Z,99.90
2019-02-18T23:10:19.992Z,99.90
2019-02-18T23:12:50.589Z,99.90
2019-02-18T23:15:19.099Z,99.90
2019-02-18T23:17:47.645Z,99.90
2019-02-18T23:20:16.461Z,99.90
2019-02-18T23:22:44.979Z,99.90
2019-02-18T23:25:13.461Z,99.90
2019-02-18T23:27:41.897Z,99.90
2019-02-18T23:30:10.588Z,99.90
2019-02-18T23:32:40.102Z,99.90
2019-02-18T23:35:09.123Z,99.90
2019-02-18T23:37:40.781Z,99.90
2019-02-18T23:40:09.283Z,99.90
2019-02-18T23:42:37.779Z,99.90
2019-02-18T23:45:06.405Z,99.90
2019-02-18T23:47:34.932Z,99.90
2019-02-18T23:50:03.747Z,99.90
2019-02-18T23:52:32.186Z,99.90
2019-02-18T23:55:00.632Z,99.90
2019-02-18T23:57:29.831Z,99.90
2019-02-18T23:59:58.264Z,99.90
